createdAt,value
2018-01-10T00:00:43.218Z,12.23
2018-01-10T00:03:10.688Z,9.57
2018-01-10T00:05:38.142Z,4.75
2018-01-10T00:08:05.609Z,14.00
2018-01-10T00:10:33.828Z,7.37
2018-01-10T00:13:01.287Z,9.15
2018-01-10T00:15:28.747Z,17.52
2018-01-10T00:17:56.219Z,8.43
2018-01-10T00:20:23.695Z,9.00
2018-01-10T00:22:51.158Z,7.37
2018-01-10T00:25:18.618Z,7.82
2018-01-10T00:27:46.083Z,15.43
2018-01-10T00:30:14.318Z,6.28
2018-01-10T00:32:41.790Z,11.60
2018-01-10T00:35:09.251Z,9.85
2018-01-10T00:37:36.745Z,10.23
2018-01-10T00:40:04.963Z,10.10
2018-01-10T00:42:32.430Z,11.20
2018-01-10T00:44:59.883Z,9.95
2018-01-10T00:47:27.367Z,7.45
2018-01-10T00:49:54.823Z,8.05
2018-01-10T00:52:22.286Z,9.65
2018-01-10T00:54:49.743Z,7.32
2018-01-10T00:57:17.202Z,8.23
2018-01-10T00:59:44.659Z,10.95
2018-01-10T01:02:12.133Z,11.12
2018-01-10T01:04:40.358Z,18.77
2018-01-10T01:07:07.845Z,8.85
2018-01-10T01:09:35.303Z,13.68
2018-01-10T01:12:02.759Z,11.02
2018-01-10T01:14:30.220Z,9.95
2018-01-10T01:16:57.680Z,6.12
2018-01-10T01:19:25.162Z,8.98
2018-01-10T01:21:52.611Z,8.75
2018-01-10T01:24:20.913Z,14.48
2018-01-10T01:26:48.370Z,11.57
2018-01-10T01:29:15.835Z,9.30
2018-01-10T01:31:43.294Z,6.78
2018-01-10T01:34:10.883Z,11.25
2018-01-10T01:36:38.291Z,7.05
2018-01-10T01:39:05.753Z,7.72
2018-01-10T01:41:33.290Z,8.48
2018-01-10T01:44:01.519Z,12.37
2018-01-10T01:46:28.978Z,6.55
2018-01-10T01:48:56.443Z,10.95
2018-01-10T01:51:23.903Z,7.82
2018-01-10T01:53:51.387Z,8.68
2018-01-10T01:56:19.610Z,10.50
2018-01-10T01:58:47.076Z,7.95
2018-01-10T02:01:14.543Z,8.85
2018-01-10T02:03:42.003Z,9.65
2018-01-10T02:06:09.459Z,9.52
2018-01-10T02:08:36.973Z,13.57
2018-01-10T02:11:04.494Z,10.70
2018-01-10T02:13:31.954Z,10.40
2018-01-10T02:15:59.422Z,12.93
2018-01-10T02:18:26.898Z,13.23
2018-01-10T02:20:55.119Z,14.48
2018-01-10T02:23:22.589Z,10.23
2018-01-10T02:25:50.040Z,9.32
2018-01-10T02:28:17.516Z,10.60
2018-01-10T02:30:44.979Z,9.65
2018-01-10T02:33:12.536Z,9.32
2018-01-10T02:35:39.990Z,10.55
2018-01-10T02:38:07.450Z,8.45
2018-01-10T02:40:34.922Z,11.40
2018-01-10T02:43:03.178Z,9.10
2018-01-10T02:45:30.638Z,10.52
2018-01-10T02:47:58.100Z,9.35
2018-01-10T02:50:25.560Z,12.77
2018-01-10T02:52:53.017Z,7.93
2018-01-10T02:55:20.479Z,13.45
2018-01-10T02:57:48.718Z,11.55
2018-01-10T03:00:16.188Z,11.40
2018-01-10T03:02:43.639Z,9.20
2018-01-10T03:05:11.112Z,12.35
2018-01-10T03:07:38.574Z,17.27
2018-01-10T03:10:06.057Z,17.23
2018-01-10T03:12:34.282Z,12.07
2018-01-10T03:15:01.754Z,12.55
2018-01-10T03:17:29.228Z,10.02
2018-01-10T03:19:56.783Z,8.55
2018-01-10T03:22:24.238Z,7.28
2018-01-10T03:24:51.702Z,10.07
2018-01-10T03:27:19.175Z,7.55
2018-01-10T03:29:47.427Z,12.48
2018-01-10T03:32:14.886Z,9.20
2018-01-10T03:34:42.350Z,11.10
2018-01-10T03:37:10.574Z,10.45
2018-01-10T03:39:38.049Z,7.50
2018-01-10T03:42:05.527Z,11.27
2018-01-10T03:44:32.990Z,9.52
2018-01-10T03:47:00.451Z,12.43
2018-01-10T03:49:27.927Z,8.30
2018-01-10T03:51:56.159Z,12.63
2018-01-10T03:54:23.631Z,8.30
2018-01-10T03:56:51.098Z,11.73
2018-01-10T03:59:18.556Z,9.20
2018-01-10T04:01:46.019Z,12.30
2018-01-10T04:04:13.537Z,10.13
2018-01-10T04:06:40.991Z,8.95
2018-01-10T04:09:08.456Z,10.40
2018-01-10T04:11:35.922Z,15.32
2018-01-10T04:14:03.396Z,10.65
2018-01-10T04:16:30.855Z,13.10
2018-01-10T04:18:58.321Z,10.07
2018-01-10T04:21:25.787Z,12.45
2018-01-10T04:23:54.017Z,10.50
2018-01-10T04:26:21.479Z,10.45
2018-01-10T04:28:48.938Z,12.00
2018-01-10T04:31:16.398Z,10.57
2018-01-10T04:33:43.858Z,13.00
2018-01-10T04:36:11.315Z,9.25
2018-01-10T04:38:38.787Z,12.00
2018-01-10T04:41:06.238Z,13.27
2018-01-10T04:43:33.699Z,9.35
2018-01-10T04:46:01.159Z,17.20
2018-01-10T04:48:28.621Z,10.07
2018-01-10T04:50:56.176Z,11.25
2018-01-10T04:53:23.645Z,14.18
2018-01-10T04:55:51.114Z,13.27
2018-01-10T04:58:19.340Z,12.20
2018-01-10T05:00:46.878Z,8.68
2018-01-10T05:03:14.326Z,9.40
2018-01-10T05:05:41.824Z,8.63
2018-01-10T05:08:09.326Z,7.85
2018-01-10T05:10:37.563Z,8.45
2018-01-10T05:13:05.019Z,6.70
2018-01-10T05:15:32.484Z,12.02
2018-01-10T05:17:59.939Z,8.48
2018-01-10T05:20:27.406Z,8.35
2018-01-10T05:22:54.868Z,5.70
2018-01-10T05:25:22.333Z,6.07
2018-01-10T05:27:49.807Z,8.63
2018-01-10T05:30:18.088Z,12.20
2018-01-10T05:32:46.316Z,8.40
2018-01-10T05:35:13.783Z,8.68
2018-01-10T05:37:41.248Z,11.43
2018-01-10T05:40:08.714Z,8.55
2018-01-10T05:42:36.171Z,8.90
2018-01-10T05:45:03.648Z,7.22
2018-01-10T05:47:31.867Z,10.57
2018-01-10T05:49:59.338Z,7.53
2018-01-10T05:52:26.806Z,9.73
2018-01-10T05:54:54.747Z,9.82
2018-01-10T05:57:22.207Z,8.65
2018-01-10T05:59:49.684Z,10.27
2018-01-10T06:02:17.157Z,11.68
2018-01-10T06:04:44.630Z,8.55
2018-01-10T06:07:12.884Z,7.93
2018-01-10T06:09:40.359Z,12.95
2018-01-10T06:12:08.595Z,9.43
2018-01-10T06:14:36.064Z,13.82
2018-01-10T06:17:03.548Z,8.75
2018-01-10T06:19:31.002Z,9.85
2018-01-10T06:21:59.260Z,8.05
2018-01-10T06:24:26.723Z,10.57
2018-01-10T06:26:54.195Z,17.85
2018-01-10T06:29:22.423Z,10.27
2018-01-10T06:31:49.895Z,11.63
2018-01-10T06:34:17.362Z,10.43
2018-01-10T06:36:44.832Z,10.68
2018-01-10T06:39:12.299Z,12.15
2018-01-10T06:41:39.776Z,9.80
2018-01-10T06:44:08.028Z,10.73
2018-01-10T06:46:35.584Z,13.90
2018-01-10T06:49:03.063Z,13.93
2018-01-10T06:51:31.326Z,9.43
2018-01-10T06:53:59.555Z,14.87
2018-01-10T06:56:27.036Z,12.88
2018-01-10T06:58:54.500Z,12.25
2018-01-10T07:01:21.979Z,11.52
2018-01-10T07:03:50.215Z,11.60
2018-01-10T07:06:17.706Z,10.75
2018-01-10T07:08:45.163Z,16.30
2018-01-10T07:11:12.629Z,13.77
2018-01-10T07:13:40.864Z,10.55
2018-01-10T07:16:08.324Z,14.07
2018-01-10T07:18:35.809Z,10.60
2018-01-10T07:21:03.274Z,15.95
2018-01-10T07:23:31.515Z,13.75
2018-01-10T07:25:58.971Z,16.25
2018-01-10T07:28:26.431Z,12.43
2018-01-10T07:30:53.891Z,27.52
2018-01-10T07:33:21.423Z,13.00
2018-01-10T07:35:48.903Z,27.15
2018-01-10T07:38:16.362Z,14.65
2018-01-10T07:40:43.845Z,23.70
2018-01-10T07:43:12.091Z,16.62
2018-01-10T07:45:39.552Z,10.15
2018-01-10T07:48:07.029Z,17.55
2018-01-10T07:50:34.587Z,22.80
2018-01-10T07:53:02.046Z,15.10
2018-01-10T07:55:29.526Z,18.08
2018-01-10T07:57:57.746Z,15.60
2018-01-10T08:00:25.262Z,13.43
2018-01-10T08:02:53.489Z,14.00
2018-01-10T08:05:20.977Z,14.07
2018-01-10T08:07:48.452Z,21.50
2018-01-10T08:10:16.690Z,16.08
2018-01-10T08:12:44.171Z,18.37
2018-01-10T08:15:11.626Z,33.88
2018-01-10T08:17:39.092Z,40.67
2018-01-10T08:20:07.339Z,18.33
2018-01-10T08:22:34.816Z,54.00
2018-01-10T08:25:02.289Z,21.35
2018-01-10T08:27:30.529Z,22.65
2018-01-10T08:29:57.999Z,12.13
2018-01-10T08:32:25.481Z,13.35
2018-01-10T08:34:53.728Z,19.67
2018-01-10T08:37:21.216Z,13.43
2018-01-10T08:39:49.452Z,11.95
2018-01-10T08:42:16.949Z,15.73
2018-01-10T08:44:45.208Z,19.62
2018-01-10T08:47:12.683Z,13.30
2018-01-10T08:49:40.931Z,15.80
2018-01-10T08:52:08.422Z,15.80
2018-01-10T08:54:36.684Z,11.00
2018-01-10T08:57:05.033Z,15.48
2018-01-10T08:59:32.509Z,13.57
2018-01-10T09:01:59.979Z,20.10
2018-01-10T09:04:28.227Z,14.80
2018-01-10T09:06:55.725Z,15.15
2018-01-10T09:09:23.979Z,18.80
2018-01-10T09:11:51.462Z,21.65
2018-01-10T09:14:18.934Z,17.80
2018-01-10T09:16:46.420Z,17.60
2018-01-10T09:19:13.895Z,24.37
2018-01-10T09:21:41.396Z,26.37
2018-01-10T09:24:09.625Z,13.57
2018-01-10T09:26:37.104Z,20.98
2018-01-10T09:29:04.558Z,15.63
2018-01-10T09:31:32.058Z,14.50
2018-01-10T09:33:59.517Z,16.17
2018-01-10T09:36:26.990Z,20.37
2018-01-10T09:38:54.456Z,23.27
2018-01-10T09:41:21.924Z,17.98
2018-01-10T09:43:49.409Z,20.77
2018-01-10T09:46:16.886Z,19.17
2018-01-10T09:48:45.128Z,16.15
2018-01-10T09:51:12.600Z,18.05
2018-01-10T09:53:40.067Z,18.95
2018-01-10T09:56:08.305Z,17.87
2018-01-10T09:58:35.764Z,20.77
2018-01-10T10:01:03.240Z,17.33
2018-01-10T10:03:30.714Z,18.35
2018-01-10T10:05:58.182Z,19.27
2018-01-10T10:08:26.414Z,17.98
2018-01-10T10:10:53.889Z,16.60
2018-01-10T10:13:21.385Z,18.95
2018-01-10T10:15:49.625Z,16.73
2018-01-10T10:18:17.090Z,20.37
2018-01-10T10:20:44.571Z,18.10
2018-01-10T10:23:12.798Z,21.73
2018-01-10T10:25:40.279Z,26.10
2018-01-10T10:28:07.745Z,21.33
2018-01-10T10:30:35.214Z,20.48
2018-01-10T10:33:03.444Z,19.45
2018-01-10T10:35:30.916Z,22.67
2018-01-10T10:37:58.399Z,26.45
2018-01-10T10:40:26.000Z,25.15
2018-01-10T10:42:53.471Z,21.35
2018-01-10T10:45:20.941Z,29.70
2018-01-10T10:47:48.429Z,25.20
2018-01-10T10:50:15.896Z,21.02
2018-01-10T10:52:44.131Z,26.83
2018-01-10T10:55:11.603Z,23.35
2018-01-10T10:57:39.099Z,26.85
2018-01-10T11:00:07.322Z,25.98
2018-01-10T11:02:34.800Z,21.25
2018-01-10T11:05:02.279Z,30.55
2018-01-10T11:07:30.539Z,26.50
2018-01-10T11:09:58.004Z,22.27
2018-01-10T11:12:25.485Z,20.40
2018-01-10T11:14:52.953Z,24.15
2018-01-10T11:17:20.445Z,22.02
2018-01-10T11:19:47.930Z,22.87
2018-01-10T11:22:15.488Z,22.52
2018-01-10T11:24:42.950Z,24.90
2018-01-10T11:27:10.435Z,29.33
2018-01-10T11:29:37.916Z,25.45
2018-01-10T11:32:05.387Z,21.42
2018-01-10T11:34:32.855Z,18.00
2018-01-10T11:37:00.336Z,24.45
2018-01-10T11:39:27.804Z,20.37
2018-01-10T11:41:56.048Z,25.62
2018-01-10T11:44:23.518Z,21.20
2018-01-10T11:46:51.006Z,23.33
2018-01-10T11:49:19.239Z,21.75
2018-01-10T11:51:46.736Z,29.60
2018-01-10T11:54:14.965Z,34.42
2018-01-10T11:56:42.439Z,23.33
2018-01-10T11:59:09.920Z,17.48
2018-01-10T12:01:38.161Z,23.12
2018-01-10T12:04:05.640Z,20.50
2018-01-10T12:06:33.107Z,28.38
2018-01-10T12:09:01.338Z,20.50
2018-01-10T12:11:28.816Z,22.50
2018-01-10T12:13:56.280Z,22.67
2018-01-10T12:16:23.761Z,24.05
2018-01-10T12:18:52.001Z,25.25
2018-01-10T12:21:19.480Z,26.45
2018-01-10T12:23:46.946Z,22.17
2018-01-10T12:26:14.407Z,33.78
2018-01-10T12:28:42.649Z,24.90
2018-01-10T12:31:10.114Z,27.73
2018-01-10T12:33:37.604Z,23.17
2018-01-10T12:36:05.855Z,25.88
2018-01-10T12:38:33.334Z,27.77
2018-01-10T12:41:01.575Z,27.60
2018-01-10T12:43:29.175Z,24.35
2018-01-10T12:45:57.407Z,28.30
2018-01-10T12:48:24.987Z,21.00
2018-01-10T12:50:52.460Z,24.83
2018-01-10T12:53:20.703Z,25.80
2018-01-10T12:55:48.196Z,26.00
2018-01-10T12:58:15.684Z,27.27
2018-01-10T13:00:43.159Z,23.70
2018-01-10T13:03:10.629Z,27.35
2018-01-10T13:05:38.118Z,29.20
2018-01-10T13:08:06.367Z,26.92
2018-01-10T13:10:33.840Z,32.15
2018-01-10T13:13:01.314Z,26.98
2018-01-10T13:15:29.714Z,32.17
2018-01-10T13:17:57.184Z,28.45
2018-01-10T13:20:24.653Z,25.00
2018-01-10T13:22:52.118Z,32.47
2018-01-10T13:25:19.583Z,34.42
2018-01-10T13:27:47.054Z,31.30
2018-01-10T13:30:14.511Z,25.00
2018-01-10T13:32:41.997Z,27.42
2018-01-10T13:35:10.231Z,29.85
2018-01-10T13:37:37.723Z,24.73
2018-01-10T13:40:05.608Z,32.70
2018-01-10T13:42:33.193Z,27.35
2018-01-10T13:45:00.660Z,30.45
2018-01-10T13:47:28.135Z,27.50
2018-01-10T13:49:55.591Z,32.30
2018-01-10T13:52:23.064Z,27.85
2018-01-10T13:54:50.530Z,24.73
2018-01-10T13:57:18.009Z,30.55
2018-01-10T13:59:46.243Z,29.83
2018-01-10T14:02:13.728Z,33.67
2018-01-10T14:04:41.228Z,31.40
2018-01-10T14:07:08.715Z,30.23
2018-01-10T14:09:36.180Z,28.48
2018-01-10T14:12:03.689Z,30.80
2018-01-10T14:14:31.168Z,25.52
2018-01-10T14:16:58.633Z,20.58
2018-01-10T14:19:26.111Z,22.50
2018-01-10T14:21:53.579Z,25.85
2018-01-10T14:24:21.060Z,23.98
2018-01-10T14:26:58.609Z,24.33
2018-01-10T14:29:26.075Z,26.67
2018-01-10T14:31:53.644Z,31.12
2018-01-10T14:34:21.116Z,22.50
2018-01-10T14:36:48.579Z,20.80
2018-01-10T14:39:16.057Z,22.25
2018-01-10T14:41:44.293Z,23.25
2018-01-10T14:44:12.257Z,24.25
2018-01-10T14:46:39.729Z,30.37
2018-01-10T14:49:07.189Z,24.17
2018-01-10T14:51:34.663Z,23.80
2018-01-10T14:54:02.896Z,20.73
2018-01-10T14:56:30.392Z,27.50
2018-01-10T14:58:58.746Z,24.50
2018-01-10T15:01:26.228Z,29.17
2018-01-10T15:03:54.464Z,21.50
2018-01-10T15:06:21.969Z,32.70
2018-01-10T15:08:50.213Z,28.80
2018-01-10T15:11:17.827Z,26.55
2018-01-10T15:13:45.290Z,26.75
2018-01-10T15:16:12.760Z,31.90
2018-01-10T15:18:40.251Z,34.97
2018-01-10T15:21:07.866Z,31.42
2018-01-10T15:23:35.324Z,36.30
2018-01-10T15:26:02.836Z,39.78
2018-01-10T15:28:30.548Z,29.98
2018-01-10T15:30:58.016Z,32.97
2018-01-10T15:33:25.558Z,34.35
2018-01-10T15:35:53.037Z,34.13
2018-01-10T15:38:20.511Z,32.03
2018-01-10T15:40:48.685Z,30.67
2018-01-10T15:43:16.156Z,35.92
2018-01-10T15:45:43.636Z,34.40
2018-01-10T15:48:11.871Z,30.15
2018-01-10T15:50:39.371Z,30.55
2018-01-10T15:53:07.739Z,32.72
2018-01-10T15:55:35.207Z,36.22
2018-01-10T15:58:03.466Z,37.03
2018-01-10T16:00:30.939Z,37.85
2018-01-10T16:02:59.176Z,40.15
2018-01-10T16:05:26.651Z,36.00
2018-01-10T16:07:54.156Z,40.83
2018-01-10T16:10:21.640Z,34.78
2018-01-10T16:12:59.892Z,38.50
2018-01-10T16:15:27.401Z,34.72
2018-01-10T16:17:54.862Z,41.03
2018-01-10T16:20:22.388Z,39.42
2018-01-10T16:22:50.623Z,42.90
2018-01-10T16:25:19.242Z,39.45
2018-01-10T16:27:46.778Z,42.65
2018-01-10T16:30:15.758Z,52.90
2018-01-10T16:32:43.358Z,38.97
2018-01-10T16:35:10.903Z,42.17
2018-01-10T16:37:38.370Z,51.80
2018-01-10T16:40:06.596Z,45.15
2018-01-10T16:42:34.087Z,34.97
2018-01-10T16:45:02.326Z,39.53
2018-01-10T16:47:29.803Z,40.30
2018-01-10T16:49:57.289Z,53.38
2018-01-10T16:52:25.515Z,45.05
2018-01-10T16:54:53.115Z,39.38
2018-01-10T16:57:21.385Z,41.97
2018-01-10T16:59:48.852Z,42.55
2018-01-10T17:02:17.107Z,47.15
2018-01-10T17:04:44.597Z,49.47
2018-01-10T17:07:12.075Z,49.03
2018-01-10T17:09:39.572Z,52.05
2018-01-10T17:12:07.039Z,54.17
2018-01-10T17:14:34.516Z,49.83
2018-01-10T17:17:01.977Z,60.65
2018-01-10T17:19:30.223Z,48.55
2018-01-10T17:21:57.695Z,51.35
2018-01-10T17:24:25.170Z,48.13
2018-01-10T17:26:53.415Z,46.40
2018-01-10T17:29:20.883Z,55.78
2018-01-10T17:31:48.779Z,44.63
2018-01-10T17:34:17.003Z,58.22
2018-01-10T17:36:44.481Z,63.90
2018-01-10T17:39:11.945Z,57.15
2018-01-10T17:41:39.428Z,59.97
2018-01-10T17:44:07.658Z,69.80
2018-01-10T17:46:35.157Z,58.05
2018-01-10T17:49:03.470Z,72.75
2018-01-10T17:51:31.175Z,67.10
2018-01-10T17:53:58.617Z,62.08
2018-01-10T17:56:26.086Z,68.05
2018-01-10T17:58:53.545Z,64.07
2018-01-10T18:01:21.027Z,82.28
2018-01-10T18:03:48.496Z,81.80
2018-01-10T18:06:15.975Z,89.32
2018-01-10T18:08:43.451Z,61.35
2018-01-10T18:11:10.938Z,68.85
2018-01-10T18:13:38.401Z,70.18
2018-01-10T18:16:06.078Z,114.07
2018-01-10T18:18:34.311Z,123.43
2018-01-10T18:21:01.797Z,104.20
2018-01-10T18:23:29.256Z,87.03
2018-01-10T18:25:56.756Z,75.93
2018-01-10T18:28:24.221Z,80.18
2018-01-10T18:30:51.684Z,75.37
2018-01-10T18:33:19.207Z,88.75
2018-01-10T18:35:47.430Z,91.20
2018-01-10T18:38:14.911Z,89.95
2018-01-10T18:40:42.372Z,94.10
2018-01-10T18:43:10.044Z,90.70
2018-01-10T18:45:37.523Z,114.72
2018-01-10T18:48:05.017Z,96.53
2018-01-10T18:50:32.484Z,96.78
2018-01-10T18:52:59.977Z,100.95
2018-01-10T18:55:28.208Z,99.43
2018-01-10T18:57:55.683Z,104.68
2018-01-10T19:00:23.261Z,101.40
2018-01-10T19:02:50.732Z,92.53
2018-01-10T19:05:18.966Z,93.35
2018-01-10T19:07:46.449Z,91.10
2018-01-10T19:10:14.735Z,97.00
2018-01-10T19:12:43.371Z,115.55
2018-01-10T19:15:10.864Z,101.07
2018-01-10T19:17:38.347Z,97.90
2018-01-10T19:20:06.570Z,85.20
2018-01-10T19:22:34.196Z,98.20
2018-01-10T19:25:01.657Z,92.22
2018-01-10T19:27:29.123Z,88.40
2018-01-10T19:29:56.586Z,93.55
2018-01-10T19:32:24.243Z,89.90
2018-01-10T19:34:51.776Z,134.00
2018-01-10T19:37:20.374Z,106.80
2018-01-10T19:39:48.965Z,228.60
2018-01-10T19:42:16.499Z,222.57
2018-01-10T19:44:44.731Z,186.55
2018-01-10T19:47:12.964Z,174.98
2018-01-10T19:49:40.443Z,187.02
2018-01-10T19:52:07.940Z,144.62
2018-01-10T19:54:35.446Z,235.52
2018-01-10T19:57:02.930Z,201.85
2018-01-10T19:59:30.395Z,148.65
2018-01-10T20:01:57.871Z,219.68
2018-01-10T20:04:25.348Z,198.38
2018-01-10T20:06:52.833Z,188.68
2018-01-10T20:09:21.080Z,215.35
2018-01-10T20:11:48.808Z,150.77
2018-01-10T20:14:16.298Z,221.70
2018-01-10T20:16:43.780Z,232.87
2018-01-10T20:19:12.011Z,159.95
2018-01-10T20:21:39.482Z,157.05
2018-01-10T20:24:06.955Z,170.30
2018-01-10T20:26:34.422Z,191.90
2018-01-10T20:29:02.667Z,154.93
2018-01-10T20:31:30.435Z,133.50
2018-01-10T20:33:57.915Z,92.47
2018-01-10T20:36:25.377Z,79.93
2018-01-10T20:38:52.846Z,105.55
2018-01-10T20:41:21.095Z,103.78
2018-01-10T20:43:48.572Z,123.72
2018-01-10T20:46:16.803Z,100.97
2018-01-10T20:48:44.287Z,83.45
2018-01-10T20:51:11.755Z,73.00
2018-01-10T20:53:39.224Z,65.43
2018-01-10T20:56:07.458Z,74.40
2018-01-10T20:58:34.960Z,72.95
2018-01-10T21:01:02.437Z,67.78
2018-01-10T21:03:29.915Z,66.70
2018-01-10T21:05:57.384Z,74.55
2018-01-10T21:08:24.854Z,71.55
2018-01-10T21:10:52.327Z,66.62
2018-01-10T21:13:19.790Z,66.85
2018-01-10T21:15:47.263Z,107.75
2018-01-10T21:18:15.497Z,74.70
2018-01-10T21:20:42.955Z,76.15
2018-01-10T21:23:10.518Z,83.45
2018-01-10T21:25:37.979Z,77.40
2018-01-10T21:28:05.504Z,70.03
2018-01-10T21:30:32.972Z,69.70
2018-01-10T21:33:00.436Z,62.42
2018-01-10T21:35:27.895Z,64.55
2018-01-10T21:37:55.372Z,65.68
2018-01-10T21:40:22.838Z,65.18
2018-01-10T21:42:50.336Z,58.05
2018-01-10T21:45:17.824Z,73.30
2018-01-10T21:47:45.296Z,76.78
2018-01-10T21:50:12.931Z,69.68
2018-01-10T21:52:41.142Z,54.58
2018-01-10T21:55:08.654Z,64.40
2018-01-10T21:57:36.147Z,58.63
2018-01-10T22:00:03.607Z,53.28
2018-01-10T22:02:31.073Z,72.15
2018-01-10T22:04:58.542Z,63.60
2018-01-10T22:07:26.016Z,73.47
2018-01-10T22:09:53.466Z,85.00
2018-01-10T22:12:20.938Z,75.90
2018-01-10T22:14:49.187Z,100.25
2018-01-10T22:17:16.650Z,56.95
2018-01-10T22:19:44.119Z,59.30
2018-01-10T22:22:12.371Z,62.42
2018-01-10T22:24:40.053Z,54.97
2018-01-10T22:27:07.525Z,66.95
2018-01-10T22:29:36.575Z,57.45
2018-01-10T22:32:04.035Z,58.20
2018-01-10T22:34:31.502Z,54.80
2018-01-10T22:36:58.973Z,49.85
2018-01-10T22:39:26.454Z,55.67
2018-01-10T22:41:54.682Z,53.47
2018-01-10T22:44:22.395Z,49.58
2018-01-10T22:46:49.863Z,51.47
2018-01-10T22:49:17.342Z,44.60
2018-01-10T22:51:44.816Z,49.83
2018-01-10T22:54:12.279Z,48.60
2018-01-10T22:56:41.040Z,51.03
2018-01-10T22:59:09.347Z,51.83
2018-01-10T23:01:36.818Z,44.00
2018-01-10T23:04:04.286Z,57.42
2018-01-10T23:06:31.760Z,57.60
2018-01-10T23:08:59.260Z,57.45
2018-01-10T23:11:26.759Z,66.18
2018-01-10T23:13:54.227Z,55.05
2018-01-10T23:16:22.466Z,54.67
2018-01-10T23:18:49.938Z,52.47
2018-01-10T23:21:17.413Z,50.38
2018-01-10T23:23:45.700Z,52.90
2018-01-10T23:26:13.939Z,49.92
2018-01-10T23:28:41.422Z,45.55
2018-01-10T23:31:09.660Z,52.80
2018-01-10T23:33:37.129Z,62.90
2018-01-10T23:36:05.397Z,45.83
2018-01-10T23:38:32.957Z,54.38
2018-01-10T23:41:00.475Z,50.60
2018-01-10T23:43:28.192Z,51.50
2018-01-10T23:45:55.654Z,51.53
2018-01-10T23:48:23.132Z,44.92
2018-01-10T23:50:51.365Z,45.50
2018-01-10T23:53:18.841Z,41.67
2018-01-10T23:55:46.376Z,42.80
2018-01-10T23:58:13.878Z,38.30
